sensor_id;sensor_type;location;lat;lon;timestamp;P1;durP1;ratioP1;P2;durP2;ratioP2
65463;SDS011;52063;45.110;9.870;2022-11-15T00:00:05;12.90;;;10.38;;
65463;SDS011;52063;45.110;9.870;2022-11-15T00:02:51;14.63;;;11.20;;
65463;SDS011;52063;45.110;9.870;2022-11-15T00:05:36;13.57;;;10.57;;
65463;SDS011;52063;45.110;9.870;2022-11-15T00:08:20;15.18;;;11.30;;
65463;SDS011;52063;45.110;9.870;2022-11-15T00:11:05;12.63;;;10.73;;
65463;SDS011;52063;45.110;9.870;2022-11-15T00:13:49;13.88;;;10.95;;
65463;SDS011;52063;45.110;9.870;2022-11-15T00:16:33;14.55;;;11.20;;
65463;SDS011;52063;45.110;9.870;2022-11-15T00:19:17;13.20;;;11.07;;
65463;SDS011;52063;45.110;9.870;2022-11-15T00:22:01;12.18;;;10.85;;
65463;SDS011;52063;45.110;9.870;2022-11-15T00:24:46;12.88;;;10.73;;
65463;SDS011;52063;45.110;9.870;2022-11-15T00:27:30;12.68;;;10.40;;
65463;SDS011;52063;45.110;9.870;2022-11-15T00:30:14;12.85;;;10.75;;
65463;SDS011;52063;45.110;9.870;2022-11-15T00:33:05;13.43;;;11.40;;
65463;SDS011;52063;45.110;9.870;2022-11-15T00:35:49;12.90;;;10.55;;
65463;SDS011;52063;45.110;9.870;2022-11-15T00:38:33;11.50;;;10.10;;
65463;SDS011;52063;45.110;9.870;2022-11-15T00:41:19;13.38;;;10.90;;
65463;SDS011;52063;45.110;9.870;2022-11-15T00:44:03;13.48;;;11.23;;
65463;SDS011;52063;45.110;9.870;2022-11-15T00:46:47;13.07;;;10.50;;
65463;SDS011;52063;45.110;9.870;2022-11-15T00:49:31;12.00;;;10.10;;
65463;SDS011;52063;45.110;9.870;2022-11-15T00:52:16;12.75;;;10.90;;
65463;SDS011;52063;45.110;9.870;2022-11-15T00:55:00;13.57;;;10.55;;
65463;SDS011;52063;45.110;9.870;2022-11-15T00:57:44;14.10;;;11.38;;
65463;SDS011;52063;45.110;9.870;2022-11-15T01:00:29;13.13;;;10.27;;
65463;SDS011;52063;45.110;9.870;2022-11-15T01:03:13;13.15;;;10.85;;
65463;SDS011;52063;45.110;9.870;2022-11-15T01:05:59;12.88;;;11.20;;
65463;SDS011;52063;45.110;9.870;2022-11-15T01:08:43;12.25;;;10.30;;
65463;SDS011;52063;45.110;9.870;2022-11-15T01:11:28;13.82;;;10.98;;
65463;SDS011;52063;45.110;9.870;2022-11-15T01:14:12;12.80;;;10.83;;
65463;SDS011;52063;45.110;9.870;2022-11-15T01:16:56;12.73;;;10.95;;
65463;SDS011;52063;45.110;9.870;2022-11-15T01:19:40;12.07;;;10.77;;
65463;SDS011;52063;45.110;9.870;2022-11-15T01:22:24;12.98;;;10.73;;
65463;SDS011;52063;45.110;9.870;2022-11-15T01:25:09;14.55;;;11.32;;
65463;SDS011;52063;45.110;9.870;2022-11-15T01:27:53;12.07;;;10.80;;
65463;SDS011;52063;45.110;9.870;2022-11-15T01:30:37;12.30;;;10.80;;
65463;SDS011;52063;45.110;9.870;2022-11-15T01:33:21;11.77;;;10.57;;
65463;SDS011;52063;45.110;9.870;2022-11-15T01:36:06;13.10;;;11.07;;
65463;SDS011;52063;45.110;9.870;2022-11-15T01:38:55;12.10;;;10.75;;
65463;SDS011;52063;45.110;9.870;2022-11-15T01:41:40;12.37;;;11.03;;
65463;SDS011;52063;45.110;9.870;2022-11-15T01:47:18;14.75;;;12.20;;
65463;SDS011;52063;45.110;9.870;2022-11-15T01:50:05;16.27;;;12.10;;
65463;SDS011;52063;45.110;9.870;2022-11-15T01:52:52;15.27;;;12.35;;
65463;SDS011;52063;45.110;9.870;2022-11-15T01:55:36;15.33;;;12.67;;
65463;SDS011;52063;45.110;9.870;2022-11-15T01:58:21;15.60;;;12.02;;
65463;SDS011;52063;45.110;9.870;2022-11-15T02:01:05;15.82;;;12.90;;
65463;SDS011;52063;45.110;9.870;2022-11-15T02:03:55;14.77;;;12.20;;
65463;SDS011;52063;45.110;9.870;2022-11-15T02:06:45;14.60;;;12.25;;
65463;SDS011;52063;45.110;9.870;2022-11-15T02:09:30;15.70;;;13.53;;
65463;SDS011;52063;45.110;9.870;2022-11-15T02:12:16;15.13;;;12.70;;
65463;SDS011;52063;45.110;9.870;2022-11-15T02:15:03;16.60;;;13.20;;
65463;SDS011;52063;45.110;9.870;2022-11-15T02:23:56;15.10;;;12.73;;
65463;SDS011;52063;45.110;9.870;2022-11-15T02:33:39;15.25;;;12.48;;
65463;SDS011;52063;45.110;9.870;2022-11-15T02:42:32;17.35;;;12.82;;
65463;SDS011;52063;45.110;9.870;2022-11-15T02:45:37;14.75;;;12.82;;
65463;SDS011;52063;45.110;9.870;2022-11-15T02:48:23;15.48;;;12.82;;
65463;SDS011;52063;45.110;9.870;2022-11-15T02:51:08;15.43;;;13.48;;
65463;SDS011;52063;45.110;9.870;2022-11-15T02:53:53;15.77;;;12.97;;
65463;SDS011;52063;45.110;9.870;2022-11-15T02:56:37;15.35;;;13.23;;
65463;SDS011;52063;45.110;9.870;2022-11-15T03:14:02;14.68;;;12.55;;
65463;SDS011;52063;45.110;9.870;2022-11-15T03:19:46;15.90;;;13.23;;
65463;SDS011;52063;45.110;9.870;2022-11-15T03:22:33;16.90;;;13.67;;
65463;SDS011;52063;45.110;9.870;2022-11-15T03:25:20;16.80;;;13.75;;
65463;SDS011;52063;45.110;9.870;2022-11-15T03:28:06;14.75;;;12.77;;
65463;SDS011;52063;45.110;9.870;2022-11-15T03:30:53;14.68;;;12.38;;
65463;SDS011;52063;45.110;9.870;2022-11-15T03:33:38;15.55;;;12.77;;
65463;SDS011;52063;45.110;9.870;2022-11-15T03:36:24;15.10;;;12.60;;
65463;SDS011;52063;45.110;9.870;2022-11-15T03:39:09;14.55;;;12.55;;
65463;SDS011;52063;45.110;9.870;2022-11-15T03:47:45;15.85;;;12.48;;
65463;SDS011;52063;45.110;9.870;2022-11-15T03:50:32;14.60;;;12.53;;
65463;SDS011;52063;45.110;9.870;2022-11-15T03:53:17;16.25;;;13.27;;
65463;SDS011;52063;45.110;9.870;2022-11-15T03:56:01;15.32;;;13.38;;
65463;SDS011;52063;45.110;9.870;2022-11-15T03:58:46;15.18;;;12.70;;
65463;SDS011;52063;45.110;9.870;2022-11-15T04:01:30;16.23;;;13.63;;
65463;SDS011;52063;45.110;9.870;2022-11-15T04:04:14;15.57;;;12.60;;
65463;SDS011;52063;45.110;9.870;2022-11-15T04:06:58;15.20;;;12.32;;
65463;SDS011;52063;45.110;9.870;2022-11-15T04:09:42;16.55;;;12.60;;
65463;SDS011;52063;45.110;9.870;2022-11-15T04:12:45;14.60;;;12.38;;
65463;SDS011;52063;45.110;9.870;2022-11-15T04:15:31;14.48;;;12.35;;
65463;SDS011;52063;45.110;9.870;2022-11-15T04:18:15;14.53;;;11.73;;
65463;SDS011;52063;45.110;9.870;2022-11-15T04:20:59;15.18;;;12.95;;
65463;SDS011;52063;45.110;9.870;2022-11-15T04:24:02;16.65;;;13.25;;
65463;SDS011;52063;45.110;9.870;2022-11-15T04:26:56;15.55;;;13.68;;
65463;SDS011;52063;45.110;9.870;2022-11-15T04:29:40;14.32;;;12.82;;
65463;SDS011;52063;45.110;9.870;2022-11-15T04:32:24;15.43;;;12.77;;
65463;SDS011;52063;45.110;9.870;2022-11-15T04:35:08;16.08;;;13.45;;
65463;SDS011;52063;45.110;9.870;2022-11-15T04:37:53;14.55;;;12.98;;
65463;SDS011;52063;45.110;9.870;2022-11-15T04:40:37;15.95;;;12.75;;
65463;SDS011;52063;45.110;9.870;2022-11-15T04:43:21;15.82;;;13.32;;
65463;SDS011;52063;45.110;9.870;2022-11-15T04:46:06;15.80;;;12.77;;
65463;SDS011;52063;45.110;9.870;2022-11-15T04:48:50;13.90;;;11.57;;
65463;SDS011;52063;45.110;9.870;2022-11-15T04:51:35;14.55;;;12.50;;
65463;SDS011;52063;45.110;9.870;2022-11-15T04:54:19;14.90;;;12.35;;
65463;SDS011;52063;45.110;9.870;2022-11-15T04:57:03;13.63;;;12.10;;
65463;SDS011;52063;45.110;9.870;2022-11-15T04:59:47;14.23;;;12.47;;
65463;SDS011;52063;45.110;9.870;2022-11-15T05:02:32;15.80;;;12.90;;
65463;SDS011;52063;45.110;9.870;2022-11-15T05:05:34;15.10;;;12.50;;
65463;SDS011;52063;45.110;9.870;2022-11-15T05:08:19;14.68;;;12.63;;
65463;SDS011;52063;45.110;9.870;2022-11-15T05:11:03;13.82;;;12.38;;
65463;SDS011;52063;45.110;9.870;2022-11-15T05:13:47;13.23;;;11.20;;
65463;SDS011;52063;45.110;9.870;2022-11-15T05:16:31;15.15;;;12.85;;
65463;SDS011;52063;45.110;9.870;2022-11-15T05:19:15;13.20;;;10.95;;
65463;SDS011;52063;45.110;9.870;2022-11-15T05:22:00;13.90;;;10.85;;
65463;SDS011;52063;45.110;9.870;2022-11-15T05:24:44;12.38;;;10.63;;
65463;SDS011;52063;45.110;9.870;2022-11-15T05:27:28;13.23;;;10.27;;
65463;SDS011;52063;45.110;9.870;2022-11-15T05:30:12;11.88;;;10.30;;
65463;SDS011;52063;45.110;9.870;2022-11-15T05:32:56;13.02;;;10.88;;
65463;SDS011;52063;45.110;9.870;2022-11-15T05:35:41;13.70;;;10.27;;
65463;SDS011;52063;45.110;9.870;2022-11-15T05:38:26;12.85;;;9.57;;
65463;SDS011;52063;45.110;9.870;2022-11-15T05:41:10;11.00;;;9.37;;
65463;SDS011;52063;45.110;9.870;2022-11-15T05:43:55;11.95;;;9.32;;
65463;SDS011;52063;45.110;9.870;2022-11-15T05:46:40;12.68;;;10.25;;
65463;SDS011;52063;45.110;9.870;2022-11-15T05:49:25;10.68;;;9.55;;
65463;SDS011;52063;45.110;9.870;2022-11-15T05:52:13;12.75;;;10.48;;
65463;SDS011;52063;45.110;9.870;2022-11-15T05:54:59;11.10;;;9.60;;
65463;SDS011;52063;45.110;9.870;2022-11-15T05:57:43;10.55;;;9.45;;
65463;SDS011;52063;45.110;9.870;2022-11-15T06:00:28;11.43;;;9.55;;
65463;SDS011;52063;45.110;9.870;2022-11-15T06:03:12;11.27;;;8.93;;
65463;SDS011;52063;45.110;9.870;2022-11-15T06:05:58;11.65;;;9.45;;
65463;SDS011;52063;45.110;9.870;2022-11-15T06:08:42;10.67;;;9.47;;
65463;SDS011;52063;45.110;9.870;2022-11-15T06:11:26;10.60;;;9.27;;
65463;SDS011;52063;45.110;9.870;2022-11-15T06:14:10;10.43;;;9.32;;
65463;SDS011;52063;45.110;9.870;2022-11-15T06:19:36;10.90;;;9.63;;
65463;SDS011;52063;45.110;9.870;2022-11-15T06:22:20;10.27;;;8.63;;
65463;SDS011;52063;45.110;9.870;2022-11-15T06:25:04;10.20;;;8.93;;
65463;SDS011;52063;45.110;9.870;2022-11-15T06:27:52;9.63;;;8.63;;
65463;SDS011;52063;45.110;9.870;2022-11-15T06:30:37;10.65;;;9.05;;
65463;SDS011;52063;45.110;9.870;2022-11-15T06:33:21;10.90;;;9.13;;
65463;SDS011;52063;45.110;9.870;2022-11-15T06:36:06;11.30;;;9.30;;
65463;SDS011;52063;45.110;9.870;2022-11-15T06:38:52;10.20;;;8.68;;
65463;SDS011;52063;45.110;9.870;2022-11-15T06:41:36;10.27;;;8.93;;
65463;SDS011;52063;45.110;9.870;2022-11-15T06:44:20;10.88;;;8.98;;
65463;SDS011;52063;45.110;9.870;2022-11-15T06:47:04;9.52;;;8.55;;
65463;SDS011;52063;45.110;9.870;2022-11-15T06:49:49;8.93;;;7.83;;
65463;SDS011;52063;45.110;9.870;2022-11-15T06:52:33;10.07;;;8.98;;
65463;SDS011;52063;45.110;9.870;2022-11-15T06:55:17;9.43;;;8.32;;
65463;SDS011;52063;45.110;9.870;2022-11-15T06:58:01;9.57;;;8.57;;
65463;SDS011;52063;45.110;9.870;2022-11-15T07:00:46;10.65;;;9.50;;
65463;SDS011;52063;45.110;9.870;2022-11-15T07:03:30;10.03;;;9.03;;
65463;SDS011;52063;45.110;9.870;2022-11-15T07:06:14;10.23;;;8.65;;
65463;SDS011;52063;45.110;9.870;2022-11-15T07:08:58;9.73;;;8.30;;
65463;SDS011;52063;45.110;9.870;2022-11-15T07:11:42;9.55;;;8.32;;
65463;SDS011;52063;45.110;9.870;2022-11-15T07:14:26;9.77;;;8.77;;
65463;SDS011;52063;45.110;9.870;2022-11-15T07:17:10;10.60;;;8.37;;
65463;SDS011;52063;45.110;9.870;2022-11-15T07:19:55;9.93;;;8.93;;
65463;SDS011;52063;45.110;9.870;2022-11-15T07:22:39;9.60;;;8.60;;
65463;SDS011;52063;45.110;9.870;2022-11-15T07:25:24;10.43;;;8.75;;
65463;SDS011;52063;45.110;9.870;2022-11-15T07:28:08;10.80;;;9.05;;
65463;SDS011;52063;45.110;9.870;2022-11-15T07:30:52;9.83;;;8.67;;
65463;SDS011;52063;45.110;9.870;2022-11-15T07:33:36;10.88;;;9.23;;
65463;SDS011;52063;45.110;9.870;2022-11-15T07:36:20;9.68;;;8.70;;
65463;SDS011;52063;45.110;9.870;2022-11-15T07:39:05;9.32;;;8.18;;
65463;SDS011;52063;45.110;9.870;2022-11-15T07:41:49;11.85;;;9.90;;
65463;SDS011;52063;45.110;9.870;2022-11-15T07:44:53;11.13;;;9.47;;
65463;SDS011;52063;45.110;9.870;2022-11-15T07:47:37;12.38;;;10.10;;
65463;SDS011;52063;45.110;9.870;2022-11-15T07:50:24;12.77;;;10.55;;
65463;SDS011;52063;45.110;9.870;2022-11-15T07:53:08;15.10;;;13.15;;
65463;SDS011;52063;45.110;9.870;2022-11-15T07:55:54;13.80;;;11.45;;
65463;SDS011;52063;45.110;9.870;2022-11-15T07:58:38;13.90;;;11.10;;
65463;SDS011;52063;45.110;9.870;2022-11-15T08:01:22;15.63;;;11.32;;
65463;SDS011;52063;45.110;9.870;2022-11-15T08:04:07;14.05;;;12.07;;
65463;SDS011;52063;45.110;9.870;2022-11-15T08:06:51;15.00;;;11.55;;
65463;SDS011;52063;45.110;9.870;2022-11-15T08:09:35;14.85;;;11.98;;
65463;SDS011;52063;45.110;9.870;2022-11-15T08:12:19;17.33;;;12.70;;
65463;SDS011;52063;45.110;9.870;2022-11-15T08:15:03;16.70;;;12.90;;
65463;SDS011;52063;45.110;9.870;2022-11-15T08:17:52;15.05;;;13.07;;
65463;SDS011;52063;45.110;9.870;2022-11-15T08:20:40;17.88;;;13.27;;
65463;SDS011;52063;45.110;9.870;2022-11-15T08:23:24;17.00;;;14.13;;
65463;SDS011;52063;45.110;9.870;2022-11-15T08:26:09;16.20;;;13.43;;
65463;SDS011;52063;45.110;9.870;2022-11-15T08:28:53;18.15;;;14.13;;
65463;SDS011;52063;45.110;9.870;2022-11-15T08:31:37;15.57;;;12.40;;
65463;SDS011;52063;45.110;9.870;2022-11-15T08:34:21;17.85;;;13.60;;
65463;SDS011;52063;45.110;9.870;2022-11-15T08:37:06;17.98;;;14.35;;
65463;SDS011;52063;45.110;9.870;2022-11-15T08:39:50;16.27;;;13.77;;
65463;SDS011;52063;45.110;9.870;2022-11-15T08:42:35;18.77;;;14.25;;
65463;SDS011;52063;45.110;9.870;2022-11-15T08:45:19;18.90;;;15.18;;
65463;SDS011;52063;45.110;9.870;2022-11-15T08:48:03;19.38;;;14.80;;
65463;SDS011;52063;45.110;9.870;2022-11-15T08:50:48;17.10;;;14.48;;
65463;SDS011;52063;45.110;9.870;2022-11-15T08:53:32;19.47;;;15.30;;
65463;SDS011;52063;45.110;9.870;2022-11-15T08:56:16;17.52;;;15.55;;
65463;SDS011;52063;45.110;9.870;2022-11-15T08:59:00;20.13;;;15.05;;
65463;SDS011;52063;45.110;9.870;2022-11-15T09:01:44;18.58;;;13.85;;
65463;SDS011;52063;45.110;9.870;2022-11-15T09:04:29;18.67;;;14.35;;
65463;SDS011;52063;45.110;9.870;2022-11-15T09:07:13;19.53;;;15.77;;
65463;SDS011;52063;45.110;9.870;2022-11-15T09:09:57;20.17;;;15.90;;
65463;SDS011;52063;45.110;9.870;2022-11-15T09:12:41;20.45;;;16.02;;
65463;SDS011;52063;45.110;9.870;2022-11-15T09:15:26;21.73;;;15.88;;
65463;SDS011;52063;45.110;9.870;2022-11-15T09:18:10;21.63;;;16.52;;
65463;SDS011;52063;45.110;9.870;2022-11-15T09:20:55;20.40;;;16.10;;
65463;SDS011;52063;45.110;9.870;2022-11-15T09:23:42;24.00;;;16.88;;
65463;SDS011;52063;45.110;9.870;2022-11-15T09:26:26;23.80;;;18.08;;
65463;SDS011;52063;45.110;9.870;2022-11-15T09:29:10;21.98;;;17.58;;
65463;SDS011;52063;45.110;9.870;2022-11-15T09:31:54;22.15;;;17.02;;
65463;SDS011;52063;45.110;9.870;2022-11-15T09:34:39;23.30;;;16.90;;
65463;SDS011;52063;45.110;9.870;2022-11-15T09:37:23;22.85;;;17.92;;
65463;SDS011;52063;45.110;9.870;2022-11-15T09:40:16;21.40;;;17.00;;
65463;SDS011;52063;45.110;9.870;2022-11-15T09:51:33;25.60;;;19.00;;
65463;SDS011;52063;45.110;9.870;2022-11-15T09:54:04;24.58;;;18.50;;
65463;SDS011;52063;45.110;9.870;2022-11-15T09:56:31;23.10;;;17.92;;
65463;SDS011;52063;45.110;9.870;2022-11-15T10:04:29;24.52;;;17.83;;
65463;SDS011;52063;45.110;9.870;2022-11-15T10:10:15;24.70;;;19.03;;
65463;SDS011;52063;45.110;9.870;2022-11-15T10:13:00;22.00;;;17.20;;
65463;SDS011;52063;45.110;9.870;2022-11-15T10:15:25;21.70;;;17.17;;
65463;SDS011;52063;45.110;9.870;2022-11-15T10:20:20;26.80;;;18.97;;
65463;SDS011;52063;45.110;9.870;2022-11-15T10:22:48;22.50;;;18.15;;
65463;SDS011;52063;45.110;9.870;2022-11-15T10:25:23;24.48;;;18.98;;
65463;SDS011;52063;45.110;9.870;2022-11-15T10:27:52;19.90;;;17.03;;
65463;SDS011;52063;45.110;9.870;2022-11-15T10:30:36;24.67;;;19.27;;
65463;SDS011;52063;45.110;9.870;2022-11-15T10:33:51;23.38;;;18.83;;
65463;SDS011;52063;45.110;9.870;2022-11-15T10:41:16;22.83;;;18.17;;
65463;SDS011;52063;45.110;9.870;2022-11-15T10:43:43;24.02;;;19.27;;
65463;SDS011;52063;45.110;9.870;2022-11-15T10:46:23;27.13;;;20.08;;
65463;SDS011;52063;45.110;9.870;2022-11-15T10:48:49;26.42;;;20.38;;
65463;SDS011;52063;45.110;9.870;2022-11-15T10:51:25;25.47;;;20.53;;
65463;SDS011;52063;45.110;9.870;2022-11-15T10:53:54;23.55;;;17.67;;
65463;SDS011;52063;45.110;9.870;2022-11-15T10:56:22;24.10;;;18.65;;
65463;SDS011;52063;45.110;9.870;2022-11-15T10:58:52;24.17;;;18.60;;
65463;SDS011;52063;45.110;9.870;2022-11-15T11:01:22;21.67;;;16.80;;
65463;SDS011;52063;45.110;9.870;2022-11-15T11:04:00;22.80;;;18.48;;
65463;SDS011;52063;45.110;9.870;2022-11-15T11:06:28;21.65;;;17.02;;
65463;SDS011;52063;45.110;9.870;2022-11-15T11:11:23;23.70;;;17.77;;
65463;SDS011;52063;45.110;9.870;2022-11-15T11:13:49;23.45;;;19.13;;
65463;SDS011;52063;45.110;9.870;2022-11-15T11:35:20;25.33;;;18.67;;
65463;SDS011;52063;45.110;9.870;2022-11-15T11:51:38;20.05;;;16.25;;
65463;SDS011;52063;45.110;9.870;2022-11-15T11:56:37;19.40;;;15.33;;
65463;SDS011;52063;45.110;9.870;2022-11-15T11:59:06;19.00;;;15.90;;
65463;SDS011;52063;45.110;9.870;2022-11-15T12:01:36;19.17;;;16.08;;
65463;SDS011;52063;45.110;9.870;2022-11-15T12:04:10;19.27;;;16.13;;
65463;SDS011;52063;45.110;9.870;2022-11-15T12:09:34;19.33;;;16.13;;
65463;SDS011;52063;45.110;9.870;2022-11-15T12:14:35;19.35;;;16.02;;
65463;SDS011;52063;45.110;9.870;2022-11-15T12:17:02;18.17;;;14.75;;
65463;SDS011;52063;45.110;9.870;2022-11-15T12:19:28;18.37;;;14.63;;
65463;SDS011;52063;45.110;9.870;2022-11-15T12:24:49;20.35;;;15.32;;
65463;SDS011;52063;45.110;9.870;2022-11-15T12:29:58;19.45;;;15.20;;
65463;SDS011;52063;45.110;9.870;2022-11-15T12:32:34;18.70;;;14.67;;
65463;SDS011;52063;45.110;9.870;2022-11-15T12:35:03;19.17;;;14.93;;
65463;SDS011;52063;45.110;9.870;2022-11-15T12:44:56;18.33;;;14.77;;
65463;SDS011;52063;45.110;9.870;2022-11-15T12:47:24;16.33;;;13.68;;
65463;SDS011;52063;45.110;9.870;2022-11-15T12:49:51;17.90;;;14.57;;
65463;SDS011;52063;45.110;9.870;2022-11-15T12:52:17;15.95;;;13.75;;
65463;SDS011;52063;45.110;9.870;2022-11-15T12:54:57;17.42;;;14.45;;
65463;SDS011;52063;45.110;9.870;2022-11-15T12:57:34;16.13;;;13.38;;
65463;SDS011;52063;45.110;9.870;2022-11-15T13:00:05;17.17;;;13.35;;
65463;SDS011;52063;45.110;9.870;2022-11-15T13:02:41;17.10;;;13.53;;
65463;SDS011;52063;45.110;9.870;2022-11-15T13:20:18;15.43;;;13.77;;
65463;SDS011;52063;45.110;9.870;2022-11-15T13:22:47;15.77;;;13.18;;
65463;SDS011;52063;45.110;9.870;2022-11-15T13:25:21;14.80;;;12.95;;
65463;SDS011;52063;45.110;9.870;2022-11-15T13:27:49;13.87;;;12.20;;
65463;SDS011;52063;45.110;9.870;2022-11-15T13:30:18;13.95;;;12.45;;
65463;SDS011;52063;45.110;9.870;2022-11-15T13:32:45;15.85;;;12.85;;
65463;SDS011;52063;45.110;9.870;2022-11-15T13:35:30;19.30;;;13.27;;
65463;SDS011;52063;45.110;9.870;2022-11-15T13:37:57;14.60;;;12.75;;
65463;SDS011;52063;45.110;9.870;2022-11-15T13:40:33;18.67;;;14.17;;
65463;SDS011;52063;45.110;9.870;2022-11-15T13:43:00;15.25;;;12.48;;
65463;SDS011;52063;45.110;9.870;2022-11-15T13:45:42;14.75;;;13.15;;
65463;SDS011;52063;45.110;9.870;2022-11-15T13:48:08;14.93;;;12.38;;
65463;SDS011;52063;45.110;9.870;2022-11-15T13:50:35;14.77;;;13.13;;
65463;SDS011;52063;45.110;9.870;2022-11-15T13:53:02;15.63;;;12.43;;
65463;SDS011;52063;45.110;9.870;2022-11-15T13:55:28;12.85;;;11.45;;
65463;SDS011;52063;45.110;9.870;2022-11-15T13:57:56;14.52;;;12.63;;
65463;SDS011;52063;45.110;9.870;2022-11-15T14:02:51;13.77;;;12.00;;
65463;SDS011;52063;45.110;9.870;2022-11-15T14:05:19;14.13;;;11.80;;
65463;SDS011;52063;45.110;9.870;2022-11-15T14:07:53;14.40;;;12.18;;
65463;SDS011;52063;45.110;9.870;2022-11-15T14:10:27;13.30;;;11.60;;
65463;SDS011;52063;45.110;9.870;2022-11-15T14:12:57;14.40;;;11.40;;
65463;SDS011;52063;45.110;9.870;2022-11-15T14:18:04;14.50;;;11.47;;
65463;SDS011;52063;45.110;9.870;2022-11-15T14:20:34;13.32;;;11.73;;
65463;SDS011;52063;45.110;9.870;2022-11-15T14:23:03;13.52;;;12.02;;
65463;SDS011;52063;45.110;9.870;2022-11-15T14:25:31;15.63;;;12.60;;
65463;SDS011;52063;45.110;9.870;2022-11-15T14:28:11;12.93;;;11.38;;
65463;SDS011;52063;45.110;9.870;2022-11-15T14:30:41;15.03;;;11.23;;
65463;SDS011;52063;45.110;9.870;2022-11-15T14:38:36;12.10;;;10.68;;
65463;SDS011;52063;45.110;9.870;2022-11-15T14:41:01;13.33;;;11.83;;
65463;SDS011;52063;45.110;9.870;2022-11-15T14:43:27;13.50;;;11.85;;
65463;SDS011;52063;45.110;9.870;2022-11-15T14:45:52;12.40;;;11.10;;
65463;SDS011;52063;45.110;9.870;2022-11-15T14:48:18;13.97;;;11.70;;
65463;SDS011;52063;45.110;9.870;2022-11-15T14:50:44;12.95;;;11.30;;
65463;SDS011;52063;45.110;9.870;2022-11-15T14:53:11;12.13;;;10.82;;
65463;SDS011;52063;45.110;9.870;2022-11-15T14:55:38;12.70;;;11.10;;
65463;SDS011;52063;45.110;9.870;2022-11-15T14:58:04;14.32;;;11.38;;
65463;SDS011;52063;45.110;9.870;2022-11-15T15:00:33;12.50;;;10.70;;
65463;SDS011;52063;45.110;9.870;2022-11-15T15:02:59;12.90;;;11.27;;
65463;SDS011;52063;45.110;9.870;2022-11-15T15:05:37;14.55;;;11.75;;
65463;SDS011;52063;45.110;9.870;2022-11-15T15:08:05;11.37;;;10.17;;
65463;SDS011;52063;45.110;9.870;2022-11-15T15:10:31;14.35;;;10.63;;
65463;SDS011;52063;45.110;9.870;2022-11-15T15:12:59;12.15;;;10.82;;
65463;SDS011;52063;45.110;9.870;2022-11-15T15:15:26;11.80;;;10.60;;
65463;SDS011;52063;45.110;9.870;2022-11-15T15:17:55;11.43;;;10.23;;
65463;SDS011;52063;45.110;9.870;2022-11-15T15:20:20;12.53;;;10.93;;
65463;SDS011;52063;45.110;9.870;2022-11-15T15:22:46;11.53;;;10.07;;
65463;SDS011;52063;45.110;9.870;2022-11-15T15:25:33;12.73;;;10.33;;
65463;SDS011;52063;45.110;9.870;2022-11-15T15:27:58;11.63;;;10.43;;
65463;SDS011;52063;45.110;9.870;2022-11-15T15:30:24;12.13;;;10.60;;
65463;SDS011;52063;45.110;9.870;2022-11-15T15:32:50;12.57;;;10.55;;
65463;SDS011;52063;45.110;9.870;2022-11-15T15:35:16;11.73;;;10.57;;
65463;SDS011;52063;45.110;9.870;2022-11-15T15:37:43;11.88;;;9.80;;
65463;SDS011;52063;45.110;9.870;2022-11-15T15:40:16;13.53;;;10.87;;
65463;SDS011;52063;45.110;9.870;2022-11-15T15:42:43;11.60;;;10.40;;
65463;SDS011;52063;45.110;9.870;2022-11-15T15:45:09;11.65;;;9.85;;
65463;SDS011;52063;45.110;9.870;2022-11-15T15:47:35;10.77;;;9.60;;
65463;SDS011;52063;45.110;9.870;2022-11-15T15:50:01;10.15;;;9.00;;
65463;SDS011;52063;45.110;9.870;2022-11-15T15:55:09;11.57;;;10.48;;
65463;SDS011;52063;45.110;9.870;2022-11-15T15:57:35;11.18;;;10.07;;
65463;SDS011;52063;45.110;9.870;2022-11-15T16:00:01;11.73;;;10.53;;
65463;SDS011;52063;45.110;9.870;2022-11-15T16:02:37;10.90;;;9.70;;
65463;SDS011;52063;45.110;9.870;2022-11-15T16:05:03;11.73;;;9.80;;
65463;SDS011;52063;45.110;9.870;2022-11-15T16:07:29;11.20;;;9.30;;
65463;SDS011;52063;45.110;9.870;2022-11-15T16:09:54;10.30;;;9.10;;
65463;SDS011;52063;45.110;9.870;2022-11-15T16:12:33;10.60;;;9.50;;
65463;SDS011;52063;45.110;9.870;2022-11-15T16:14:59;11.00;;;9.77;;
65463;SDS011;52063;45.110;9.870;2022-11-15T16:17:26;11.60;;;9.63;;
65463;SDS011;52063;45.110;9.870;2022-11-15T16:19:53;9.80;;;8.80;;
65463;SDS011;52063;45.110;9.870;2022-11-15T16:22:19;10.93;;;9.83;;
65463;SDS011;52063;45.110;9.870;2022-11-15T16:24:45;11.80;;;9.80;;
65463;SDS011;52063;45.110;9.870;2022-11-15T16:27:14;11.27;;;10.07;;
65463;SDS011;52063;45.110;9.870;2022-11-15T16:29:41;11.05;;;9.95;;
65463;SDS011;52063;45.110;9.870;2022-11-15T16:32:06;10.77;;;9.53;;
65463;SDS011;52063;45.110;9.870;2022-11-15T16:34:32;10.73;;;9.63;;
65463;SDS011;52063;45.110;9.870;2022-11-15T16:36:57;11.50;;;10.27;;
65463;SDS011;52063;45.110;9.870;2022-11-15T16:39:23;10.90;;;9.53;;
65463;SDS011;52063;45.110;9.870;2022-11-15T16:41:48;10.82;;;9.73;;
65463;SDS011;52063;45.110;9.870;2022-11-15T16:44:13;10.90;;;9.63;;
65463;SDS011;52063;45.110;9.870;2022-11-15T16:46:42;11.10;;;9.90;;
65463;SDS011;52063;45.110;9.870;2022-11-15T16:49:11;10.90;;;9.75;;
65463;SDS011;52063;45.110;9.870;2022-11-15T16:51:38;11.25;;;10.05;;
65463;SDS011;52063;45.110;9.870;2022-11-15T16:54:06;11.18;;;9.95;;
65463;SDS011;52063;45.110;9.870;2022-11-15T16:56:32;14.67;;;10.50;;
65463;SDS011;52063;45.110;9.870;2022-11-15T16:58:58;13.65;;;11.15;;
65463;SDS011;52063;45.110;9.870;2022-11-15T17:01:25;14.48;;;11.32;;
65463;SDS011;52063;45.110;9.870;2022-11-15T17:03:52;19.90;;;13.60;;
65463;SDS011;52063;45.110;9.870;2022-11-15T17:06:18;23.83;;;15.35;;
65463;SDS011;52063;45.110;9.870;2022-11-15T17:08:44;27.17;;;16.53;;
65463;SDS011;52063;45.110;9.870;2022-11-15T17:11:12;34.30;;;18.95;;
65463;SDS011;52063;45.110;9.870;2022-11-15T17:13:39;42.50;;;22.98;;
65463;SDS011;52063;45.110;9.870;2022-11-15T17:16:05;53.00;;;28.77;;
65463;SDS011;52063;45.110;9.870;2022-11-15T17:18:32;60.03;;;33.55;;
65463;SDS011;52063;45.110;9.870;2022-11-15T17:21:03;69.75;;;37.97;;
65463;SDS011;52063;45.110;9.870;2022-11-15T17:23:32;75.22;;;41.15;;
65463;SDS011;52063;45.110;9.870;2022-11-15T17:25:59;86.93;;;45.50;;
65463;SDS011;52063;45.110;9.870;2022-11-15T17:28:27;82.17;;;44.53;;
65463;SDS011;52063;45.110;9.870;2022-11-15T17:30:52;87.88;;;46.65;;
65463;SDS011;52063;45.110;9.870;2022-11-15T17:33:18;85.73;;;44.67;;
65463;SDS011;52063;45.110;9.870;2022-11-15T17:35:43;83.57;;;44.43;;
65463;SDS011;52063;45.110;9.870;2022-11-15T17:38:09;85.10;;;44.63;;
65463;SDS011;52063;45.110;9.870;2022-11-15T17:40:34;81.93;;;45.55;;
65463;SDS011;52063;45.110;9.870;2022-11-15T17:43:00;87.20;;;46.80;;
65463;SDS011;52063;45.110;9.870;2022-11-15T17:45:26;89.63;;;46.95;;
65463;SDS011;52063;45.110;9.870;2022-11-15T17:47:52;91.20;;;46.73;;
65463;SDS011;52063;45.110;9.870;2022-11-15T17:50:17;91.32;;;48.42;;
65463;SDS011;52063;45.110;9.870;2022-11-15T17:52:43;89.00;;;46.33;;
65463;SDS011;52063;45.110;9.870;2022-11-15T17:55:08;86.27;;;48.27;;
65463;SDS011;52063;45.110;9.870;2022-11-15T17:57:34;85.57;;;47.25;;
65463;SDS011;52063;45.110;9.870;2022-11-15T17:59:59;86.37;;;47.47;;
65463;SDS011;52063;45.110;9.870;2022-11-15T18:02:25;84.10;;;47.53;;